Time;durP1;ratioP1;P1;durP2;ratioP2;P2;SDS_P1;SDS_P2;PMS_P1;PMS_P2;Temp;Humidity;BMP_temperature;BMP_pressure;BME280_temperature;BME280_humidity;BME280_pressure;Samples;Min_cycle;Max_cycle;Signal;HPM_P1;HPM_P2
2023/07/28 00:00:07;;;;;;;4.93;2.33;;;14.70;99.90;;;;;;5076752;28;20185;-69
2023/07/28 00:02:33;;;;;;;4.50;2.30;;;14.60;99.90;;;;;;5075092;28;20598;-69
2023/07/28 00:04:58;;;;;;;7.00;1.97;;;14.70;99.90;;;;;;5078349;28;20450;-69
2023/07/28 00:07:24;;;;;;;4.20;2.10;;;14.70;99.90;;;;;;5081946;28;20267;-70
2023/07/28 00:09:50;;;;;;;5.13;1.60;;;14.60;99.90;;;;;;5088901;28;20189;-70
2023/07/28 00:12:15;;;;;;;3.10;1.73;;;14.60;99.90;;;;;;5094864;28;20267;-69
2023/07/28 00:14:41;;;;;;;4.03;1.77;;;14.60;99.90;;;;;;5088339;28;20193;-70
2023/07/28 00:17:06;;;;;;;3.80;2.30;;;14.50;99.90;;;;;;5074619;28;20205;-70
2023/07/28 00:19:32;;;;;;;3.10;1.20;;;14.60;99.90;;;;;;5074759;28;20173;-69
2023/07/28 00:21:57;;;;;;;2.43;1.23;;;14.60;99.90;;;;;;5085656;28;20176;-69
2023/07/28 00:24:23;;;;;;;2.43;1.30;;;14.60;99.90;;;;;;5076566;28;20180;-69
2023/07/28 00:26:49;;;;;;;8.93;2.67;;;14.60;99.90;;;;;;5074459;28;20178;-70
2023/07/28 00:29:14;;;;;;;4.57;2.20;;;14.60;99.90;;;;;;5087330;28;20674;-70
2023/07/28 00:31:40;;;;;;;3.70;1.73;;;14.60;99.90;;;;;;5094172;28;20192;-70
2023/07/28 00:34:05;;;;;;;3.00;1.70;;;14.70;99.90;;;;;;5093607;28;20271;-69
2023/07/28 00:36:31;;;;;;;4.90;2.07;;;14.60;99.90;;;;;;5083051;28;20212;-69
2023/07/28 00:38:57;;;;;;;2.73;1.57;;;14.60;99.90;;;;;;5087908;28;20264;-69
2023/07/28 00:41:23;;;;;;;10.97;1.67;;;14.60;99.90;;;;;;5084923;28;20229;-69
2023/07/28 00:43:48;;;;;;;2.20;1.30;;;14.50;99.90;;;;;;5077028;28;20411;-69
2023/07/28 00:46:15;;;;;;;2.43;1.53;;;14.50;99.90;;;;;;5083614;28;20177;-70
2023/07/28 00:48:41;;;;;;;3.10;1.83;;;14.50;99.90;;;;;;5091128;28;20183;-69
2023/07/28 00:51:10;;;;;;;2.83;1.43;;;14.50;99.90;;;;;;5085713;28;20459;-69
2023/07/28 00:53:36;;;;;;;2.90;1.47;;;14.50;99.90;;;;;;5089299;28;20494;-70
2023/07/28 00:56:02;;;;;;;3.40;1.50;;;14.50;99.90;;;;;;5074233;28;20411;-70
2023/07/28 00:58:29;;;;;;;4.83;2.17;;;14.40;99.90;;;;;;5073496;28;20948;-69
2023/07/28 01:00:55;;;;;;;4.27;2.03;;;14.40;99.90;;;;;;5073328;28;20268;-70
2023/07/28 01:03:21;;;;;;;4.27;2.30;;;14.50;99.90;;;;;;5091703;28;20540;-69
2023/07/28 01:06:14;;;;;;;2.73;1.47;;;14.50;99.90;;;;;;5083233;28;20200;-70
2023/07/28 01:08:57;;;;;;;3.50;1.73;;;14.50;99.90;;;;;;5097999;28;20504;-70
2023/07/28 01:11:22;;;;;;;2.33;1.30;;;14.40;99.90;;;;;;5083491;28;20414;-69
2023/07/28 01:13:48;;;;;;;2.90;1.70;;;14.40;99.90;;;;;;5082616;28;20438;-69
2023/07/28 01:16:14;;;;;;;5.50;2.23;;;14.40;99.90;;;;;;5092471;28;20218;-69
2023/07/28 01:18:40;;;;;;;3.30;2.10;;;14.50;99.90;;;;;;5081594;28;20193;-69
2023/07/28 01:21:08;;;;;;;2.77;1.60;;;14.50;99.90;;;;;;5078744;28;20423;-69
2023/07/28 01:24:07;;;;;;;5.53;2.33;;;14.40;99.90;;;;;;5073755;28;20214;-69
2023/07/28 01:26:36;;;;;;;3.83;2.00;;;14.50;99.90;;;;;;5074374;28;20491;-69
2023/07/28 01:29:06;;;;;;;3.60;1.60;;;14.60;99.90;;;;;;5077418;28;20408;-70
2023/07/28 01:31:32;;;;;;;4.73;2.50;;;14.60;99.90;;;;;;5079894;28;20899;-69
2023/07/28 01:33:57;;;;;;;2.63;1.57;;;14.60;99.90;;;;;;5074222;28;20419;-70
2023/07/28 01:36:23;;;;;;;3.40;1.50;;;14.60;99.90;;;;;;5087729;28;20196;-69
2023/07/28 01:38:49;;;;;;;10.00;1.57;;;14.50;99.90;;;;;;5074097;28;20224;-69
2023/07/28 01:41:14;;;;;;;2.80;1.50;;;14.50;99.90;;;;;;5087251;28;20169;-70
2023/07/28 01:43:41;;;;;;;2.47;1.50;;;14.50;99.90;;;;;;5087060;28;20169;-70
2023/07/28 01:46:07;;;;;;;3.13;1.80;;;14.50;99.90;;;;;;5083638;28;20177;-69
2023/07/28 01:48:33;;;;;;;2.33;1.50;;;14.50;99.90;;;;;;5073908;28;20430;-69
2023/07/28 01:50:59;;;;;;;3.50;2.00;;;14.50;99.90;;;;;;5093857;28;20184;-69
2023/07/28 01:53:25;;;;;;;1.93;1.00;;;14.50;99.90;;;;;;5093348;28;20418;-69
2023/07/28 01:55:50;;;;;;;2.93;1.63;;;14.50;99.90;;;;;;5086312;28;20181;-70
2023/07/28 01:58:16;;;;;;;3.53;2.20;;;14.40;99.90;;;;;;5086410;28;20700;-70
2023/07/28 02:00:42;;;;;;;3.63;1.80;;;14.40;99.90;;;;;;5080120;28;20188;-69
2023/07/28 02:03:07;;;;;;;2.93;1.67;;;14.30;99.90;;;;;;5078343;28;20213;-70
2023/07/28 02:05:33;;;;;;;2.07;1.37;;;14.30;99.90;;;;;;5075263;28;20176;-70
2023/07/28 02:07:59;;;;;;;4.00;1.90;;;14.30;99.90;;;;;;5095209;28;20528;-69
2023/07/28 02:10:27;;;;;;;3.07;1.60;;;14.30;99.90;;;;;;5089176;28;20204;-69
2023/07/28 02:12:52;;;;;;;3.53;2.00;;;14.20;99.90;;;;;;5081098;28;20687;-69
2023/07/28 02:15:18;;;;;;;3.37;1.40;;;14.20;99.90;;;;;;5096874;28;20490;-69
2023/07/28 02:17:44;;;;;;;12.23;1.73;;;14.30;99.90;;;;;;5097167;28;20230;-69
2023/07/28 02:20:15;;;;;;;4.90;1.90;;;14.30;99.90;;;;;;5083919;28;20187;-69
2023/07/28 02:22:41;;;;;;;4.10;2.10;;;14.50;99.90;;;;;;5075122;28;20215;-69
2023/07/28 02:25:07;;;;;;;3.20;1.40;;;14.50;99.90;;;;;;5078312;28;20410;-69
2023/07/28 02:27:33;;;;;;;3.30;1.50;;;14.60;99.90;;;;;;5092651;28;20422;-69
2023/07/28 02:29:58;;;;;;;2.90;1.20;;;14.80;99.90;;;;;;5083081;28;20425;-69
2023/07/28 02:32:24;;;;;;;2.63;1.50;;;14.90;99.90;;;;;;5079972;28;20173;-70
2023/07/28 02:34:50;;;;;;;4.70;2.53;;;15.00;99.90;;;;;;5082086;28;20730;-69
2023/07/28 02:37:16;;;;;;;3.63;1.80;;;15.10;99.90;;;;;;5083037;28;20200;-69
2023/07/28 02:39:42;;;;;;;3.87;1.60;;;15.20;99.90;;;;;;5080063;28;20173;-70
2023/07/28 02:42:07;;;;;;;3.20;1.60;;;15.30;99.90;;;;;;5087285;28;20173;-69
2023/07/28 02:44:33;;;;;;;2.00;1.20;;;15.40;99.90;;;;;;5091963;28;20461;-69
2023/07/28 02:46:58;;;;;;;3.73;2.50;;;15.30;99.90;;;;;;5078830;28;20181;-69
2023/07/28 02:49:24;;;;;;;2.37;1.40;;;15.30;99.90;;;;;;5086391;28;20195;-69
2023/07/28 02:51:50;;;;;;;3.03;1.40;;;15.40;99.90;;;;;;5086071;28;20203;-69
2023/07/28 02:54:15;;;;;;;2.50;1.67;;;15.40;99.90;;;;;;5092035;28;20230;-70
2023/07/28 02:56:41;;;;;;;3.23;1.70;;;15.40;99.90;;;;;;5076685;28;20635;-69
2023/07/28 02:59:06;;;;;;;3.57;1.60;;;15.50;99.90;;;;;;5075278;28;20205;-70
2023/07/28 03:01:33;;;;;;;3.10;1.80;;;15.50;99.90;;;;;;5072335;28;20552;-69
2023/07/28 03:04:00;;;;;;;4.90;1.90;;;15.50;99.90;;;;;;5078402;28;20173;-70
2023/07/28 03:06:25;;;;;;;3.10;1.23;;;15.70;99.90;;;;;;5091910;28;20711;-69
2023/07/28 03:08:51;;;;;;;2.33;1.50;;;15.70;99.90;;;;;;5095457;28;20410;-69
2023/07/28 03:11:17;;;;;;;2.20;1.33;;;15.70;99.90;;;;;;5095657;28;20251;-69
2023/07/28 03:13:42;;;;;;;8.10;1.50;;;15.80;99.90;;;;;;5087889;28;20191;-70
2023/07/28 03:16:08;;;;;;;3.70;1.40;;;15.80;99.90;;;;;;5104263;28;20225;-69
2023/07/28 03:18:33;;;;;;;3.70;1.53;;;15.80;99.90;;;;;;5086461;28;20204;-69
2023/07/28 03:20:59;;;;;;;2.57;1.30;;;15.80;99.90;;;;;;5075779;28;20541;-70
2023/07/28 03:23:25;;;;;;;4.67;1.50;;;15.90;99.90;;;;;;5084236;28;20177;-69
2023/07/28 03:25:50;;;;;;;3.40;1.53;;;16.00;99.90;;;;;;5093610;28;20185;-69
2023/07/28 03:28:16;;;;;;;3.00;1.33;;;16.00;99.90;;;;;;5075627;28;20189;-69
2023/07/28 03:30:41;;;;;;;2.97;1.53;;;16.00;99.90;;;;;;5081992;28;20263;-69
2023/07/28 03:33:07;;;;;;;2.30;1.47;;;16.10;99.90;;;;;;5084516;28;20279;-70
2023/07/28 03:35:33;;;;;;;4.77;1.60;;;16.10;99.90;;;;;;5089017;28;20223;-69
2023/07/28 03:37:58;;;;;;;7.50;3.03;;;16.10;99.90;;;;;;5078586;28;20288;-69
2023/07/28 03:40:24;;;;;;;7.17;3.63;;;16.20;99.90;;;;;;5092702;28;20169;-71
2023/07/28 03:42:50;;;;;;;4.80;1.83;;;16.20;99.90;;;;;;5076438;28;20185;-70
2023/07/28 03:45:16;;;;;;;3.77;2.23;;;16.30;99.90;;;;;;5090595;28;20499;-69
2023/07/28 03:47:42;;;;;;;5.03;1.90;;;16.30;99.90;;;;;;5075402;28;20189;-70
2023/07/28 03:50:08;;;;;;;2.33;1.50;;;16.30;99.90;;;;;;5090959;28;20460;-70
2023/07/28 03:52:33;;;;;;;2.93;1.67;;;16.30;99.90;;;;;;5086928;28;20468;-70
2023/07/28 03:54:59;;;;;;;4.53;1.57;;;16.30;99.90;;;;;;5074860;28;20632;-70
2023/07/28 03:57:24;;;;;;;1.93;1.20;;;16.30;99.90;;;;;;5075156;28;20208;-70
2023/07/28 03:59:50;;;;;;;2.20;1.20;;;16.30;99.90;;;;;;5088298;28;20180;-70
2023/07/28 04:02:16;;;;;;;3.40;1.60;;;16.30;99.90;;;;;;5079984;28;20177;-69
2023/07/28 04:04:41;;;;;;;3.50;1.60;;;16.30;99.90;;;;;;5087977;28;20521;-70
2023/07/28 04:07:07;;;;;;;3.70;1.83;;;16.30;99.90;;;;;;5075171;28;20256;-70
2023/07/28 04:09:32;;;;;;;7.53;1.30;;;16.40;99.90;;;;;;5097481;28;20566;-70
2023/07/28 04:11:58;;;;;;;2.73;1.27;;;16.40;99.90;;;;;;5095340;28;20199;-69
2023/07/28 04:14:24;;;;;;;2.70;1.23;;;16.50;99.90;;;;;;5085479;28;20176;-70
2023/07/28 04:16:49;;;;;;;3.20;1.37;;;16.50;99.90;;;;;;5095037;28;20179;-70
2023/07/28 04:19:15;;;;;;;4.17;2.30;;;16.50;99.90;;;;;;5093497;28;20181;-70
2023/07/28 04:21:41;;;;;;;2.17;1.33;;;16.60;99.90;;;;;;5083467;28;20176;-70
2023/07/28 04:24:10;;;;;;;2.90;1.67;;;16.50;99.90;;;;;;5087887;28;20214;-69
2023/07/28 04:26:35;;;;;;;6.07;1.47;;;16.50;99.90;;;;;;5074256;28;20181;-69
2023/07/28 04:29:01;;;;;;;2.10;1.47;;;16.50;99.90;;;;;;5083926;28;20407;-70
2023/07/28 04:31:27;;;;;;;3.47;2.07;;;16.50;99.90;;;;;;5087347;28;20256;-70
2023/07/28 04:33:53;;;;;;;3.33;1.70;;;16.60;99.90;;;;;;5093056;28;20417;-70
2023/07/28 04:36:18;;;;;;;2.10;1.23;;;16.60;99.90;;;;;;5076058;28;20556;-69
2023/07/28 04:38:44;;;;;;;6.57;2.10;;;16.60;99.90;;;;;;5073399;28;20242;-70
2023/07/28 04:41:09;;;;;;;1.90;1.10;;;16.70;99.90;;;;;;5073507;28;20181;-70
2023/07/28 04:43:35;;;;;;;3.47;1.67;;;16.70;99.90;;;;;;5073015;28;20181;-70
2023/07/28 04:46:02;;;;;;;1.80;1.10;;;16.80;99.90;;;;;;5077389;28;20482;-70
2023/07/28 04:48:28;;;;;;;6.23;2.20;;;16.80;99.90;;;;;;5087950;28;20180;-69
2023/07/28 04:50:54;;;;;;;2.87;1.50;;;16.90;99.90;;;;;;5093514;28;20458;-71
2023/07/28 04:53:19;;;;;;;2.10;1.50;;;16.80;99.90;;;;;;5078537;28;20243;-70
2023/07/28 04:55:45;;;;;;;3.60;1.70;;;16.80;99.90;;;;;;5073730;28;20439;-70
2023/07/28 04:58:11;;;;;;;4.30;1.90;;;16.80;99.90;;;;;;5083484;28;20237;-70
2023/07/28 05:00:36;;;;;;;4.93;1.07;;;16.80;99.90;;;;;;5080713;28;20289;-69
2023/07/28 05:03:02;;;;;;;3.27;1.10;;;16.70;99.90;;;;;;5093459;28;20692;-70
2023/07/28 05:05:29;;;;;;;5.00;1.87;;;16.80;99.90;;;;;;5084192;28;20768;-70
2023/07/28 05:07:54;;;;;;;2.60;1.33;;;16.80;99.90;;;;;;5096283;28;20192;-70
2023/07/28 05:10:20;;;;;;;3.70;1.87;;;16.80;99.90;;;;;;5091704;28;20422;-69
2023/07/28 05:12:46;;;;;;;3.40;1.63;;;16.70;99.90;;;;;;5082534;28;20227;-69
2023/07/28 05:15:13;;;;;;;4.77;1.73;;;16.60;99.90;;;;;;5093261;28;20596;-70
2023/07/28 05:17:39;;;;;;;3.03;1.53;;;16.50;99.90;;;;;;5082779;28;20197;-69
2023/07/28 05:20:05;;;;;;;4.70;1.93;;;16.50;99.90;;;;;;5072927;28;20411;-69
2023/07/28 05:22:30;;;;;;;4.83;1.57;;;16.40;99.90;;;;;;5074113;28;20188;-69
2023/07/28 05:24:56;;;;;;;2.13;1.10;;;16.40;99.90;;;;;;5092741;28;20406;-69
2023/07/28 05:27:21;;;;;;;2.50;1.17;;;16.30;99.90;;;;;;5077983;28;20246;-69
2023/07/28 05:29:47;;;;;;;3.10;2.33;;;16.30;99.90;;;;;;5090075;28;20176;-69
2023/07/28 05:32:12;;;;;;;2.23;1.40;;;16.30;99.90;;;;;;5079105;28;20276;-69
2023/07/28 05:34:43;;;;;;;2.53;1.43;;;16.30;99.90;;;;;;5053914;28;1094185;-69
2023/07/28 05:37:08;;;;;;;3.40;1.40;;;16.30;99.90;;;;;;5080829;28;20258;-70
2023/07/28 05:39:34;;;;;;;6.17;1.90;;;16.30;99.90;;;;;;5072966;28;20493;-69
2023/07/28 05:41:59;;;;;;;3.90;2.10;;;16.30;99.90;;;;;;5087698;28;20189;-69
2023/07/28 05:44:25;;;;;;;2.60;1.60;;;16.30;99.90;;;;;;5073139;28;20181;-70
2023/07/28 05:46:51;;;;;;;3.20;1.73;;;16.40;99.90;;;;;;5089652;28;20651;-70
2023/07/28 05:49:16;;;;;;;2.43;1.67;;;16.40;99.90;;;;;;5085746;28;20216;-69
2023/07/28 05:51:42;;;;;;;3.90;2.10;;;16.40;99.90;;;;;;5078494;28;20188;-70
2023/07/28 05:54:07;;;;;;;3.50;2.20;;;16.40;99.90;;;;;;5081609;28;20173;-69
2023/07/28 05:56:33;;;;;;;8.80;1.90;;;16.40;99.90;;;;;;5082624;28;20251;-69
2023/07/28 05:58:59;;;;;;;4.80;2.20;;;16.50;99.90;;;;;;5083380;28;20665;-69
2023/07/28 06:01:26;;;;;;;3.10;1.83;;;16.50;99.90;;;;;;5092780;28;20271;-69
2023/07/28 06:03:55;;;;;;;2.90;1.77;;;16.50;99.90;;;;;;5092616;28;20199;-70
2023/07/28 06:06:21;;;;;;;3.90;2.03;;;16.50;99.90;;;;;;5070907;28;20421;-70
2023/07/28 06:08:47;;;;;;;4.50;2.20;;;16.50;99.90;;;;;;5086732;28;20423;-70
2023/07/28 06:11:13;;;;;;;2.53;1.60;;;16.50;99.90;;;;;;5078796;28;20477;-69
2023/07/28 06:13:38;;;;;;;2.40;1.60;;;16.50;99.90;;;;;;5080711;28;20189;-70
2023/07/28 06:16:04;;;;;;;14.80;2.30;;;16.50;99.90;;;;;;5085735;28;20197;-70
2023/07/28 06:18:29;;;;;;;3.43;1.70;;;16.50;99.90;;;;;;5072384;28;20224;-69
2023/07/28 06:20:55;;;;;;;3.00;1.77;;;16.50;99.90;;;;;;5073634;28;20638;-69
2023/07/28 06:23:21;;;;;;;3.93;1.60;;;16.40;99.90;;;;;;5080871;28;20191;-70
2023/07/28 06:25:46;;;;;;;2.50;1.60;;;16.40;99.90;;;;;;5082439;28;20184;-69
2023/07/28 06:28:12;;;;;;;3.10;1.50;;;16.40;99.90;;;;;;5078939;28;20180;-69
2023/07/28 06:30:39;;;;;;;10.60;2.40;;;16.40;99.90;;;;;;5079195;28;20676;-69
2023/07/28 06:33:08;;;;;;;8.80;2.20;;;16.40;99.90;;;;;;5084961;28;20410;-69
2023/07/28 06:35:34;;;;;;;11.40;2.20;;;16.40;99.90;;;;;;5077298;28;20932;-70
2023/07/28 06:38:00;;;;;;;3.80;2.20;;;16.50;99.90;;;;;;5084898;28;20463;-70
2023/07/28 06:40:26;;;;;;;3.83;2.17;;;16.50;99.90;;;;;;5091109;28;20172;-70
2023/07/28 06:42:51;;;;;;;4.13;1.60;;;16.50;99.90;;;;;;5071738;28;20423;-69
2023/07/28 06:45:17;;;;;;;5.70;2.07;;;16.60;99.90;;;;;;5075921;28;20290;-70
2023/07/28 06:47:43;;;;;;;2.60;1.83;;;16.60;99.90;;;;;;5079473;28;20188;-70
2023/07/28 06:50:09;;;;;;;6.27;2.00;;;16.70;99.90;;;;;;5078880;28;20196;-69
2023/07/28 06:52:34;;;;;;;3.83;1.90;;;16.70;99.90;;;;;;5082406;28;20192;-70
2023/07/28 06:55:00;;;;;;;5.47;1.60;;;16.80;99.90;;;;;;5080803;28;20492;-70
2023/07/28 06:57:25;;;;;;;3.47;1.80;;;16.90;99.90;;;;;;5076220;28;20369;-69
2023/07/28 06:59:51;;;;;;;4.03;1.87;;;17.10;99.90;;;;;;5073297;28;20181;-69
2023/07/28 07:02:17;;;;;;;4.87;2.20;;;17.20;99.90;;;;;;5084805;28;20180;-70
2023/07/28 07:04:42;;;;;;;12.50;2.43;;;17.50;99.90;;;;;;5084189;28;20193;-70
2023/07/28 07:07:09;;;;;;;4.37;2.00;;;17.60;99.90;;;;;;5078573;28;20576;-70
2023/07/28 07:09:35;;;;;;;3.43;2.00;;;17.70;99.90;;;;;;5079649;28;20193;-70
2023/07/28 07:12:00;;;;;;;4.60;1.47;;;17.80;99.90;;;;;;5081589;28;20434;-70
2023/07/28 07:14:26;;;;;;;9.00;2.37;;;17.90;99.90;;;;;;5086270;28;20196;-69
2023/07/28 07:16:51;;;;;;;4.20;1.57;;;18.00;99.90;;;;;;5077343;28;20680;-70
2023/07/28 07:19:17;;;;;;;3.60;1.73;;;18.00;99.90;;;;;;5080822;28;20181;-69
2023/07/28 07:21:44;;;;;;;4.30;1.70;;;18.10;99.90;;;;;;5079880;28;20185;-70
2023/07/28 07:24:13;;;;;;;2.53;1.13;;;18.20;99.90;;;;;;5075048;28;20244;-70
2023/07/28 07:26:39;;;;;;;5.70;1.83;;;18.20;99.90;;;;;;5078980;28;20423;-69
2023/07/28 07:29:05;;;;;;;2.90;1.67;;;18.40;99.90;;;;;;5077041;28;20919;-70
2023/07/28 07:31:30;;;;;;;3.43;1.50;;;18.60;99.90;;;;;;5088840;28;20423;-69
2023/07/28 07:33:56;;;;;;;2.80;1.50;;;18.70;99.90;;;;;;5079281;28;20727;-69
2023/07/28 07:36:22;;;;;;;2.40;1.20;;;18.80;99.90;;;;;;5076354;28;20193;-70
2023/07/28 07:38:48;;;;;;;2.00;1.10;;;19.00;99.90;;;;;;5075227;28;20219;-70
2023/07/28 07:41:21;;;;;;;4.43;1.13;;;19.00;99.90;;;;;;5073359;28;20242;-69
2023/07/28 07:43:48;;;;;;;2.87;1.03;;;19.00;99.90;;;;;;5082527;28;20415;-69
2023/07/28 07:46:15;;;;;;;2.77;1.13;;;19.20;99.90;;;;;;5071836;28;20415;-69
2023/07/28 07:48:40;;;;;;;2.53;1.03;;;19.10;99.90;;;;;;5081749;28;20415;-69
2023/07/28 07:51:08;;;;;;;4.63;1.83;;;19.00;99.90;;;;;;5070491;28;20557;-69
2023/07/28 07:53:34;;;;;;;2.60;1.20;;;19.10;99.90;;;;;;5081914;28;20176;-69
2023/07/28 07:55:59;;;;;;;1.90;0.90;;;19.10;99.90;;;;;;5076531;28;20447;-69
2023/07/28 07:58:25;;;;;;;2.47;1.17;;;19.20;99.90;;;;;;5073563;28;20209;-69
2023/07/28 08:00:51;;;;;;;2.70;1.20;;;19.20;99.90;;;;;;5083304;28;20208;-69
2023/07/28 08:03:16;;;;;;;2.23;1.23;;;19.10;99.90;;;;;;5081294;28;20619;-70
2023/07/28 08:05:42;;;;;;;2.47;1.53;;;19.30;99.90;;;;;;5080289;28;20189;-69
2023/07/28 08:08:08;;;;;;;2.80;1.67;;;19.30;99.90;;;;;;5085659;28;20184;-69
2023/07/28 08:10:34;;;;;;;2.90;1.43;;;19.70;99.90;;;;;;5082260;28;20200;-70
2023/07/28 08:12:59;;;;;;;4.03;1.47;;;20.00;99.90;;;;;;5078849;28;20467;-70
2023/07/28 08:15:25;;;;;;;2.57;1.40;;;20.30;99.90;;;;;;5080057;28;20184;-69
2023/07/28 08:17:52;;;;;;;2.73;1.27;;;20.90;99.90;;;;;;5082241;28;20223;-70
2023/07/28 08:20:17;;;;;;;5.20;1.77;;;21.30;99.90;;;;;;5081774;28;20969;-69
2023/07/28 08:22:43;;;;;;;2.67;1.50;;;22.00;99.90;;;;;;5077923;28;20525;-70
2023/07/28 08:25:09;;;;;;;2.07;1.00;;;22.60;99.90;;;;;;5081943;28;20197;-70
2023/07/28 08:27:35;;;;;;;3.90;1.30;;;22.30;99.90;;;;;;5084167;28;20176;-70
2023/07/28 08:30:00;;;;;;;2.27;1.10;;;22.30;99.90;;;;;;5080014;28;20298;-70
2023/07/28 08:32:26;;;;;;;2.83;1.70;;;22.20;99.90;;;;;;5078488;28;20239;-70
2023/07/28 08:34:52;;;;;;;5.63;1.50;;;22.00;99.90;;;;;;5080608;28;20246;-69
2023/07/28 08:37:18;;;;;;;3.30;1.57;;;22.00;99.90;;;;;;5083610;28;20566;-69
2023/07/28 08:39:43;;;;;;;3.07;1.20;;;22.10;99.90;;;;;;5089157;28;20418;-69
2023/07/28 08:42:09;;;;;;;3.47;1.83;;;22.40;99.90;;;;;;5088658;28;20678;-69
2023/07/28 08:44:35;;;;;;;5.60;1.50;;;22.30;99.90;;;;;;5073118;28;20217;-69
2023/07/28 08:47:03;;;;;;;2.27;0.87;;;22.70;99.90;;;;;;5078523;28;20271;-70
2023/07/28 08:49:31;;;;;;;6.20;1.90;;;22.60;99.90;;;;;;5081282;28;20411;-69
2023/07/28 08:51:59;;;;;;;2.37;1.23;;;22.60;99.90;;;;;;5078812;28;20461;-70
2023/07/28 08:54:24;;;;;;;1.60;0.97;;;22.70;99.90;;;;;;5079147;28;20419;-70
2023/07/28 08:56:50;;;;;;;2.63;1.20;;;22.40;99.90;;;;;;5081786;28;20414;-70
2023/07/28 08:59:27;;;;;;;5.50;1.80;;;22.10;99.90;;;;;;5079817;28;20299;-69
2023/07/28 09:01:55;;;;;;;3.00;1.53;;;21.90;99.90;;;;;;5087055;28;20648;-70
2023/07/28 09:04:21;;;;;;;5.53;1.40;;;21.50;99.90;;;;;;5087577;28;20449;-69
2023/07/28 09:06:48;;;;;;;2.83;1.23;;;21.40;99.90;;;;;;5084475;28;20970;-69
2023/07/28 09:09:14;;;;;;;2.37;1.10;;;21.40;99.90;;;;;;5082627;28;20763;-70
2023/07/28 09:11:48;;;;;;;2.77;1.30;;;21.80;99.90;;;;;;5091894;28;20423;-70
2023/07/28 09:14:16;;;;;;;1.97;1.00;;;21.90;99.90;;;;;;5090873;28;20427;-70
2023/07/28 09:16:42;;;;;;;2.90;1.37;;;22.00;99.90;;;;;;5080050;28;20477;-70
2023/07/28 09:19:09;;;;;;;2.97;1.47;;;21.80;99.90;;;;;;5072612;28;20503;-69
2023/07/28 09:21:36;;;;;;;3.30;1.67;;;21.50;99.90;;;;;;5073390;28;20977;-70
2023/07/28 09:24:06;;;;;;;3.23;1.60;;;21.40;99.90;;;;;;5075638;28;20802;-70
2023/07/28 09:26:44;;;;;;;3.40;1.23;;;21.30;99.90;;;;;;5075125;28;20418;-69
2023/07/28 09:29:23;;;;;;;3.73;1.43;;;21.30;99.90;;;;;;5082299;28;20430;-70
2023/07/28 09:31:50;;;;;;;3.77;1.30;;;21.30;99.90;;;;;;5080599;28;20470;-69
2023/07/28 09:34:26;;;;;;;3.13;1.30;;;21.30;99.90;;;;;;5075500;28;20509;-69
2023/07/28 09:36:53;;;;;;;2.23;1.13;;;21.40;99.90;;;;;;5073546;28;20466;-69
2023/07/28 09:39:20;;;;;;;2.60;1.30;;;21.50;99.90;;;;;;5082991;28;20521;-69
2023/07/28 09:41:47;;;;;;;6.53;0.97;;;21.80;99.90;;;;;;5078955;28;20426;-69
2023/07/28 09:44:13;;;;;;;2.50;1.30;;;22.10;99.90;;;;;;5071696;28;20468;-70
2023/07/28 09:46:50;;;;;;;3.30;1.27;;;22.20;99.90;;;;;;5079593;28;20426;-69
2023/07/28 09:49:17;;;;;;;8.70;1.00;;;22.10;99.90;;;;;;5078351;28;20240;-69
2023/07/28 09:51:47;;;;;;;2.47;1.37;;;21.90;99.90;;;;;;5087976;28;20418;-70
2023/07/28 09:54:28;;;;;;;2.07;1.07;;;21.90;99.90;;;;;;5062892;28;20423;-70
2023/07/28 09:56:58;;;;;;;2.17;1.27;;;21.70;99.90;;;;;;5059527;28;20439;-70
2023/07/28 09:59:29;;;;;;;3.60;1.70;;;21.60;99.90;;;;;;5074345;28;20481;-70
2023/07/28 10:01:57;;;;;;;7.73;1.50;;;21.60;99.90;;;;;;5064948;28;20422;-69
2023/07/28 10:04:23;;;;;;;3.20;1.37;;;21.80;99.90;;;;;;5081456;28;20442;-69
2023/07/28 10:06:51;;;;;;;3.30;1.20;;;21.80;99.90;;;;;;5077549;28;20835;-70
2023/07/28 10:09:17;;;;;;;2.47;1.47;;;21.80;99.90;;;;;;5085689;28;20721;-69
2023/07/28 10:11:43;;;;;;;3.23;1.70;;;21.80;99.90;;;;;;5074287;28;20471;-70
2023/07/28 10:14:11;;;;;;;2.50;1.23;;;21.80;99.90;;;;;;5076283;28;20426;-71
2023/07/28 10:16:41;;;;;;;2.57;1.47;;;21.80;99.90;;;;;;5075325;28;20426;-69
2023/07/28 10:19:07;;;;;;;5.07;1.80;;;21.80;99.90;;;;;;5069647;28;20473;-70
2023/07/28 10:21:41;;;;;;;9.97;1.50;;;21.80;99.90;;;;;;5071604;28;20425;-70
2023/07/28 10:24:07;;;;;;;3.63;1.30;;;21.90;99.90;;;;;;5074797;28;20468;-69
2023/07/28 10:26:44;;;;;;;3.63;1.73;;;21.90;99.90;;;;;;5075754;28;20415;-70
2023/07/28 10:29:14;;;;;;;2.97;1.57;;;21.70;99.90;;;;;;5074269;28;20180;-70
2023/07/28 10:31:54;;;;;;;3.13;1.70;;;21.80;99.90;;;;;;5077244;28;20853;-70
2023/07/28 10:34:21;;;;;;;2.07;1.33;;;21.70;99.90;;;;;;5076021;28;20897;-70
2023/07/28 10:36:55;;;;;;;2.80;1.63;;;21.80;99.90;;;;;;5079543;28;20461;-70
2023/07/28 10:39:21;;;;;;;2.23;1.03;;;21.90;99.90;;;;;;5083344;28;20477;-69
2023/07/28 10:42:08;;;;;;;2.07;1.10;;;22.20;99.90;;;;;;5084901;28;20418;-70
2023/07/28 10:44:34;;;;;;;2.80;1.47;;;22.40;99.90;;;;;;5078196;28;20176;-70
2023/07/28 10:47:01;;;;;;;3.27;1.60;;;22.50;99.90;;;;;;5078041;28;20502;-70
2023/07/28 10:49:27;;;;;;;3.87;1.47;;;22.70;99.90;;;;;;5075992;28;20407;-70
2023/07/28 10:51:53;;;;;;;2.93;1.17;;;22.80;99.90;;;;;;5080405;28;20426;-69
2023/07/28 10:54:20;;;;;;;3.33;1.20;;;22.60;99.90;;;;;;5077610;28;20414;-70
2023/07/28 10:56:47;;;;;;;1.93;1.10;;;22.70;99.90;;;;;;5077960;28;20651;-70
2023/07/28 10:59:13;;;;;;;7.53;1.60;;;22.60;99.90;;;;;;5075457;28;20456;-70
2023/07/28 11:01:40;;;;;;;3.13;1.63;;;22.60;99.90;;;;;;5079129;28;20406;-69
2023/07/28 11:04:24;;;;;;;3.93;1.37;;;22.70;99.90;;;;;;5077576;28;20176;-70
2023/07/28 11:06:51;;;;;;;3.10;1.23;;;22.70;99.90;;;;;;5081565;28;20443;-70
2023/07/28 11:09:19;;;;;;;11.03;1.47;;;22.80;99.90;;;;;;5079498;28;20751;-70
2023/07/28 11:11:46;;;;;;;1.73;0.97;;;23.00;99.90;;;;;;5079223;28;20435;-70
2023/07/28 11:14:14;;;;;;;4.50;1.80;;;23.00;99.90;;;;;;5078385;28;20816;-70
2023/07/28 11:16:41;;;;;;;6.03;1.90;;;22.90;99.90;;;;;;5077009;28;20425;-69
2023/07/28 11:19:11;;;;;;;2.93;1.40;;;23.00;99.40;;;;;;5074325;28;20870;-69
2023/07/28 11:21:41;;;;;;;3.47;1.90;;;22.80;98.90;;;;;;5070977;28;20439;-70
2023/07/28 11:24:08;;;;;;;3.10;1.50;;;22.80;99.00;;;;;;5078230;28;20505;-70
2023/07/28 11:26:38;;;;;;;2.27;1.43;;;22.70;98.90;;;;;;5075276;28;20932;-70
2023/07/28 11:29:04;;;;;;;5.60;1.50;;;22.60;99.30;;;;;;5076546;28;20426;-69
2023/07/28 11:31:30;;;;;;;4.07;1.60;;;22.50;99.40;;;;;;5079234;28;20991;-70
2023/07/28 11:33:56;;;;;;;3.40;1.70;;;22.40;99.70;;;;;;5076749;28;20518;-70
2023/07/28 11:36:26;;;;;;;2.60;1.27;;;22.20;99.90;;;;;;5076295;28;20239;-69
2023/07/28 11:38:54;;;;;;;6.30;2.23;;;21.80;99.90;;;;;;5081312;28;20214;-70
2023/07/28 11:41:21;;;;;;;4.77;1.43;;;21.40;99.90;;;;;;5073009;28;20420;-69
2023/07/28 11:43:50;;;;;;;3.40;1.50;;;21.00;99.90;;;;;;5080326;28;20423;-69
2023/07/28 11:46:36;;;;;;;3.10;1.33;;;20.40;99.90;;;;;;5076770;28;20407;-69
2023/07/28 11:49:21;;;;;;;5.00;2.30;;;20.10;99.90;;;;;;5073564;28;20779;-70
2023/07/28 11:51:49;;;;;;;3.60;1.57;;;19.90;99.90;;;;;;5073833;28;20422;-70
2023/07/28 11:54:17;;;;;;;3.73;2.27;;;19.70;99.90;;;;;;5083290;28;20509;-70
2023/07/28 11:56:43;;;;;;;4.37;2.60;;;19.70;99.90;;;;;;5079950;28;20489;-70
2023/07/28 11:59:19;;;;;;;2.73;1.30;;;19.80;99.90;;;;;;5078033;28;20825;-70
2023/07/28 12:01:51;;;;;;;2.80;1.40;;;20.00;99.90;;;;;;5071779;28;20430;-70
2023/07/28 12:04:26;;;;;;;3.43;1.57;;;20.10;99.90;;;;;;5075411;28;20893;-70
2023/07/28 12:07:14;;;;;;;3.63;1.93;;;20.30;99.90;;;;;;5086297;28;20413;-70
2023/07/28 12:09:46;;;;;;;4.57;1.30;;;20.50;99.90;;;;;;5074733;28;20426;-70
2023/07/28 12:12:12;;;;;;;3.20;1.90;;;20.70;99.90;;;;;;5083780;28;20448;-70
2023/07/28 12:14:39;;;;;;;4.07;1.77;;;21.00;99.90;;;;;;5079779;28;20434;-70
2023/07/28 12:17:27;;;;;;;3.20;1.87;;;21.20;99.90;;;;;;5078624;28;20494;-70
2023/07/28 12:20:11;;;;;;;3.40;1.50;;;21.50;99.90;;;;;;5077641;28;21122;-70
2023/07/28 12:22:38;;;;;;;7.67;2.20;;;21.70;99.90;;;;;;5061069;28;20538;-70
2023/07/28 12:25:04;;;;;;;4.03;1.63;;;21.90;99.90;;;;;;5079443;28;20427;-70
2023/07/28 12:27:30;;;;;;;4.87;1.67;;;22.10;99.90;;;;;;5072876;28;20438;-70
2023/07/28 12:29:56;;;;;;;3.07;1.50;;;22.40;99.90;;;;;;5078234;28;20435;-70
2023/07/28 12:32:22;;;;;;;3.20;1.37;;;22.50;99.90;;;;;;5075995;28;20434;-70
2023/07/28 12:34:49;;;;;;;2.10;1.30;;;22.70;99.90;;;;;;5089417;28;20245;-70
2023/07/28 12:37:15;;;;;;;2.50;1.33;;;22.80;99.90;;;;;;5087439;28;20193;-70
2023/07/28 12:39:41;;;;;;;2.63;1.40;;;22.60;99.90;;;;;;5075395;28;20434;-70
2023/07/28 12:42:07;;;;;;;3.30;1.83;;;22.50;99.90;;;;;;5075463;28;20601;-70
2023/07/28 12:44:33;;;;;;;2.33;1.27;;;22.40;99.90;;;;;;5085287;28;20650;-70